createdAt,value
2022-08-07T00:00:21.645Z,13.60
2022-08-07T00:04:28.432Z,13.50
2022-08-07T00:08:37.041Z,13.50
2022-08-07T00:12:57.935Z,13.40
2022-08-07T00:17:07.684Z,13.30
2022-08-07T00:21:55.491Z,13.30
2022-08-07T00:25:41.721Z,13.20
2022-08-07T00:29:48.793Z,13.10
2022-08-07T00:33:56.838Z,13.00
2022-08-07T00:38:05.451Z,13.00
2022-08-07T00:42:12.203Z,13.00
2022-08-07T00:46:20.030Z,12.90
2022-08-07T00:50:46.057Z,12.90
2022-08-07T00:54:57.050Z,12.80
2022-08-07T00:59:04.093Z,12.70
2022-08-07T01:03:11.152Z,12.60
2022-08-07T01:07:22.323Z,12.60
2022-08-07T01:12:09.779Z,12.60
2022-08-07T01:16:05.133Z,12.60
2022-08-07T01:20:17.076Z,12.50
2022-08-07T01:24:24.804Z,12.40
2022-08-07T01:28:31.587Z,12.30
2022-08-07T01:32:39.769Z,12.30
2022-08-07T01:36:52.729Z,12.30
2022-08-07T01:41:07.161Z,12.30
2022-08-07T01:45:22.727Z,12.20
2022-08-07T01:49:31.985Z,12.20
2022-08-07T01:54:11.902Z,12.10
2022-08-07T01:58:29.225Z,12.10
2022-08-07T02:03:11.883Z,12.00
2022-08-07T02:07:15.189Z,11.90
2022-08-07T02:11:30.889Z,11.80
2022-08-07T02:15:50.254Z,11.70
2022-08-07T02:20:04.686Z,11.80
2022-08-07T02:24:17.833Z,11.80
2022-08-07T02:28:27.933Z,11.80
2022-08-07T02:32:39.547Z,11.70
2022-08-07T02:37:08.664Z,11.80
2022-08-07T02:41:21.480Z,11.70
2022-08-07T02:45:59.177Z,11.60
2022-08-07T02:50:00.156Z,11.60
2022-08-07T02:54:10.103Z,11.60
2022-08-07T02:58:22.226Z,11.60
2022-08-07T03:02:36.904Z,11.60
2022-08-07T03:06:49.564Z,11.50
2022-08-07T03:10:56.863Z,11.50
2022-08-07T03:15:07.686Z,11.40
2022-08-07T03:19:14.872Z,11.40
2022-08-07T03:23:22.020Z,11.40
2022-08-07T03:27:59.604Z,11.50
2022-08-07T03:32:12.873Z,11.40
2022-08-07T03:36:23.162Z,11.40
2022-08-07T03:40:36.484Z,11.40
2022-08-07T03:44:47.351Z,11.30
2022-08-07T03:49:02.420Z,11.20
2022-08-07T03:53:11.055Z,11.10
2022-08-07T03:58:33.344Z,11.00
2022-08-07T04:01:46.277Z,11.00
2022-08-07T04:05:53.255Z,11.00
2022-08-07T04:10:05.852Z,11.00
2022-08-07T04:14:37.248Z,11.00
2022-08-07T04:18:59.546Z,11.00
2022-08-07T04:23:19.422Z,11.00
2022-08-07T04:27:26.822Z,11.00
2022-08-07T04:32:02.252Z,11.10
2022-08-07T04:36:02.428Z,11.10
2022-08-07T04:40:13.574Z,11.20
2022-08-07T04:44:21.387Z,11.10
2022-08-07T04:48:46.419Z,11.10
2022-08-07T04:53:09.245Z,11.20
2022-08-07T04:58:10.346Z,11.20
2022-08-07T05:02:20.629Z,11.30
2022-08-07T05:06:43.053Z,11.50
2022-08-07T05:11:04.279Z,11.60
2022-08-07T05:15:23.785Z,11.70
2022-08-07T05:19:44.778Z,11.80
2022-08-07T05:23:58.436Z,11.90
2022-08-07T05:28:20.255Z,12.10
2022-08-07T05:32:31.143Z,12.20
2022-08-07T05:36:42.728Z,12.30
2022-08-07T05:40:51.729Z,12.40
2022-08-07T05:45:14.290Z,12.50
2022-08-07T05:49:22.881Z,12.60
2022-08-07T05:54:09.466Z,12.70
2022-08-07T05:57:58.117Z,12.80
2022-08-07T06:02:07.409Z,13.10
2022-08-07T06:06:17.278Z,13.00
2022-08-07T06:10:24.739Z,13.30
2022-08-07T06:14:32.207Z,13.50
2022-08-07T06:18:40.700Z,13.60
2022-08-07T06:23:02.455Z,14.10
2022-08-07T06:27:22.793Z,14.20
2022-08-07T06:31:50.282Z,14.30
2022-08-07T06:36:12.179Z,14.50
2022-08-07T06:40:21.470Z,14.70
2022-08-07T06:44:31.167Z,15.00
2022-08-07T06:48:44.601Z,15.10
2022-08-07T06:52:55.769Z,15.30
2022-08-07T06:57:04.277Z,15.50
2022-08-07T07:01:14.286Z,15.60
2022-08-07T07:06:04.972Z,15.70
2022-08-07T07:09:50.790Z,15.90
2022-08-07T07:14:01.462Z,15.90
2022-08-07T07:18:19.140Z,16.10
2022-08-07T07:22:51.005Z,16.40
2022-08-07T07:27:14.744Z,16.50
2022-08-07T07:31:26.782Z,16.70
2022-08-07T07:35:43.993Z,16.80
2022-08-07T07:40:14.613Z,17.10
2022-08-07T07:44:26.716Z,17.20
2022-08-07T07:48:35.723Z,17.40
2022-08-07T07:52:46.871Z,17.40
2022-08-07T07:56:57.488Z,17.70
2022-08-07T08:02:03.420Z,17.90
2022-08-07T08:05:53.655Z,18.10
2022-08-07T08:10:04.935Z,18.30
2022-08-07T08:14:12.614Z,18.30
2022-08-07T08:18:22.652Z,18.50
2022-08-07T08:22:56.334Z,18.70
2022-08-07T08:27:11.958Z,18.90
2022-08-07T08:31:59.038Z,19.10
2022-08-07T08:35:55.830Z,19.30
2022-08-07T08:40:16.358Z,19.60
2022-08-07T08:44:54.716Z,19.90
2022-08-07T08:49:19.444Z,20.20
2022-08-07T08:53:43.425Z,20.40
2022-08-07T08:58:06.813Z,20.50
2022-08-07T09:02:39.531Z,20.70
2022-08-07T09:07:27.160Z,21.10
2022-08-07T09:11:53.332Z,21.50
2022-08-07T09:16:31.224Z,21.80
2022-08-07T09:21:01.218Z,22.00
2022-08-07T09:25:17.294Z,22.30
2022-08-07T09:30:03.930Z,22.60
2022-08-07T09:34:26.150Z,22.60
2022-08-07T09:39:11.476Z,23.00
2022-08-07T09:44:06.545Z,23.30
2022-08-07T09:48:55.849Z,23.60
2022-08-07T09:53:08.939Z,24.00
2022-08-07T09:57:46.708Z,24.20
2022-08-07T10:02:08.916Z,24.40
2022-08-07T10:06:35.654Z,24.60
2022-08-07T10:11:59.904Z,24.30
2022-08-07T10:15:26.322Z,24.40
2022-08-07T10:19:58.717Z,24.80
2022-08-07T10:24:23.678Z,25.00
2022-08-07T10:28:49.481Z,25.20
2022-08-07T10:33:18.769Z,25.50
2022-08-07T10:38:20.973Z,25.50
2022-08-07T10:42:39.057Z,25.20
2022-08-07T10:46:57.294Z,25.30
2022-08-07T10:51:16.965Z,25.50
2022-08-07T10:56:05.001Z,25.60
2022-08-07T11:00:39.202Z,25.60
2022-08-07T11:04:57.535Z,25.80
2022-08-07T11:10:10.333Z,26.30
2022-08-07T11:14:57.555Z,26.60
2022-08-07T11:18:30.425Z,26.70
2022-08-07T11:22:55.881Z,26.80
2022-08-07T11:28:01.471Z,26.60
2022-08-07T11:32:34.444Z,26.80
2022-08-07T11:37:04.807Z,26.80
2022-08-07T11:41:22.288Z,26.90
2022-08-07T11:45:53.450Z,26.80
2022-08-07T11:50:32.225Z,26.80
2022-08-07T11:55:01.419Z,26.70
2022-08-07T12:00:11.499Z,26.70
2022-08-07T12:04:39.044Z,26.80
2022-08-07T12:08:53.507Z,26.60
2022-08-07T12:13:35.565Z,26.70
2022-08-07T12:18:03.037Z,26.90
2022-08-07T12:22:38.820Z,27.20
2022-08-07T12:26:54.835Z,27.70
2022-08-07T12:31:09.310Z,28.10
2022-08-07T12:35:19.357Z,28.30
2022-08-07T12:39:42.873Z,28.20
2022-08-07T12:44:03.991Z,27.90
2022-08-07T12:48:28.293Z,27.50
2022-08-07T12:52:58.040Z,27.10
2022-08-07T12:57:09.745Z,27.10
2022-08-07T13:01:27.913Z,27.00
2022-08-07T13:06:21.997Z,25.60
2022-08-07T13:10:52.906Z,25.70
2022-08-07T13:15:34.394Z,25.90
2022-08-07T13:20:02.664Z,26.10
2022-08-07T13:24:29.456Z,26.70
2022-08-07T13:28:47.309Z,27.00
2022-08-07T13:32:56.524Z,27.30
2022-08-07T13:37:30.688Z,27.40
2022-08-07T13:41:49.374Z,27.20
2022-08-07T13:46:21.175Z,27.20
2022-08-07T13:50:35.355Z,27.40
2022-08-07T13:54:56.172Z,26.90
2022-08-07T13:59:21.542Z,26.80
2022-08-07T14:04:07.420Z,26.90
2022-08-07T14:08:02.229Z,27.30
2022-08-07T14:12:53.935Z,26.30
2022-08-07T14:17:32.141Z,25.50
2022-08-07T14:22:02.207Z,25.90
2022-08-07T14:26:28.638Z,26.10
2022-08-07T14:30:40.635Z,26.60
2022-08-07T14:34:48.204Z,26.40
2022-08-07T14:38:55.711Z,26.60
2022-08-07T14:43:57.180Z,26.60
2022-08-07T14:47:44.774Z,26.00
2022-08-07T14:52:04.889Z,25.00
2022-08-07T14:56:29.954Z,24.90
2022-08-07T15:00:39.426Z,25.10
2022-08-07T15:04:53.288Z,25.50
2022-08-07T15:09:57.608Z,25.40
2022-08-07T15:13:37.833Z,25.50
2022-08-07T15:17:55.016Z,25.50
2022-08-07T15:22:05.696Z,25.40
2022-08-07T15:36:00.747Z,25.00
2022-08-07T15:39:59.172Z,24.90
2022-08-07T15:44:12.433Z,24.60
2022-08-07T15:48:23.064Z,24.40
2022-08-07T15:52:36.572Z,24.10
2022-08-07T15:56:46.060Z,24.00
2022-08-07T16:00:55.290Z,23.80
2022-08-07T16:05:15.507Z,23.80
2022-08-07T16:09:40.970Z,23.80
2022-08-07T16:14:11.827Z,23.70
2022-08-07T16:18:51.004Z,23.30
2022-08-07T16:23:13.616Z,23.10
2022-08-07T16:27:59.044Z,23.00
2022-08-07T16:32:35.798Z,23.00
2022-08-07T16:37:02.958Z,23.10
2022-08-07T16:41:41.721Z,22.90
2022-08-07T16:51:54.040Z,22.80
2022-08-07T16:56:14.238Z,22.80
2022-08-07T17:00:30.067Z,22.60
2022-08-07T17:05:08.647Z,22.30
2022-08-07T17:10:09.200Z,22.40
2022-08-07T17:14:43.536Z,22.40
2022-08-07T17:19:18.753Z,22.10
2022-08-07T17:24:14.146Z,22.10
2022-08-07T17:28:49.738Z,22.40
2022-08-07T17:34:09.779Z,22.20
2022-08-07T17:38:33.819Z,22.10
2022-08-07T17:43:00.520Z,22.00
2022-08-07T17:47:17.002Z,21.90
2022-08-07T17:52:00.311Z,21.90
2022-08-07T17:56:31.948Z,21.60
2022-08-07T18:00:48.998Z,21.50
2022-08-07T18:05:21.529Z,21.60
2022-08-07T18:10:04.409Z,21.50
2022-08-07T18:14:28.646Z,21.40
2022-08-07T18:21:04.487Z,21.40
2022-08-07T18:23:43.601Z,21.40
2022-08-07T18:28:12.419Z,21.20
2022-08-07T18:33:11.933Z,21.00
2022-08-07T18:38:56.078Z,21.00
2022-08-07T18:42:13.373Z,20.90
2022-08-07T18:46:46.178Z,20.80
2022-08-07T18:51:08.067Z,20.70
2022-08-07T18:55:57.289Z,20.60
2022-08-07T19:00:34.299Z,20.40
2022-08-07T19:05:14.928Z,20.20
2022-08-07T19:09:55.695Z,20.30
2022-08-07T19:14:19.993Z,20.30
2022-08-07T19:18:54.307Z,20.10
2022-08-07T19:23:18.803Z,19.90
2022-08-07T19:28:57.683Z,19.70
2022-08-07T19:32:16.334Z,19.50
2022-08-07T19:36:33.443Z,19.40
2022-08-07T19:40:47.487Z,19.50
2022-08-07T19:45:08.585Z,19.50
2022-08-07T19:49:56.413Z,19.40
2022-08-07T19:54:31.357Z,19.30
2022-08-07T19:58:29.027Z,19.30
2022-08-07T20:02:51.934Z,19.20
2022-08-07T20:07:01.134Z,19.20
2022-08-07T20:11:15.176Z,19.00
2022-08-07T20:15:41.888Z,18.80
2022-08-07T20:19:58.534Z,18.70
2022-08-07T20:24:14.293Z,18.80
2022-08-07T20:28:29.773Z,18.80
2022-08-07T20:32:41.473Z,18.70
2022-08-07T20:36:51.916Z,18.50
2022-08-07T20:41:03.537Z,18.40
2022-08-07T20:45:32.855Z,18.40
2022-08-07T20:49:59.300Z,18.30
2022-08-07T20:54:15.163Z,18.10
2022-08-07T20:58:38.871Z,18.00
2022-08-07T21:02:59.101Z,18.00
2022-08-07T21:07:14.764Z,17.90
2022-08-07T21:11:28.968Z,17.90
2022-08-07T21:15:58.375Z,17.70
2022-08-07T21:20:18.675Z,17.90
2022-08-07T21:24:47.990Z,17.70
2022-08-07T21:29:18.650Z,17.80
2022-08-07T21:33:41.384Z,17.60
2022-08-07T21:38:04.204Z,17.60
2022-08-07T21:42:42.519Z,17.50
2022-08-07T21:46:59.895Z,17.40
2022-08-07T21:51:25.475Z,17.40
2022-08-07T21:56:16.668Z,17.40
2022-08-07T22:00:41.032Z,17.30
2022-08-07T22:04:54.311Z,17.20
2022-08-07T22:09:08.056Z,17.10
2022-08-07T22:13:24.584Z,17.10
2022-08-07T22:17:57.780Z,16.90
2022-08-07T22:22:21.051Z,16.80
2022-08-07T22:27:06.035Z,16.70
2022-08-07T22:31:56.061Z,16.60
2022-08-07T22:35:54.839Z,16.50
2022-08-07T22:40:39.127Z,16.50
2022-08-07T22:44:58.628Z,16.30
2022-08-07T22:49:37.869Z,16.20
2022-08-07T22:54:17.562Z,16.20
2022-08-07T22:58:40.729Z,16.10
2022-08-07T23:03:10.909Z,16.00
2022-08-07T23:07:49.516Z,16.00
2022-08-07T23:12:34.204Z,15.80
2022-08-07T23:16:55.889Z,15.80
2022-08-07T23:21:29.805Z,15.60
2022-08-07T23:26:11.970Z,15.60
2022-08-07T23:30:39.456Z,15.50
2022-08-07T23:35:12.361Z,15.40
2022-08-07T23:39:36.328Z,15.40
2022-08-07T23:44:00.792Z,15.30
2022-08-07T23:48:25.908Z,15.30
2022-08-07T23:53:11.834Z,15.20
2022-08-07T23:57:41.527Z,15.20
